Time;durP1;ratioP1;P1;durP2;ratioP2;P2;SDS_P1;SDS_P2;PMS_P1;PMS_P2;Temp;Humidity;BMP_temperature;BMP_pressure;BME280_temperature;BME280_humidity;BME280_pressure;Samples;Min_cycle;Max_cycle;Signal;HPM_P1;HPM_P2
2021/10/19 00:11:44;;;;;;;21.77;14.60;;;12.70;94.80;;;;;;5463852;24;20050;-87
2021/10/19 00:14:10;;;;;;;20.25;13.90;;;12.70;94.90;;;;;;4789906;29;20385;-88
2021/10/19 00:16:35;;;;;;;16.33;12.15;;;12.70;94.90;;;;;;4790151;29;20061;-88
2021/10/19 00:19:02;;;;;;;23.40;14.45;;;12.70;94.80;;;;;;4789114;29;20434;-87
2021/10/19 00:21:31;;;;;;;19.08;14.02;;;12.70;94.90;;;;;;4789631;29;20051;-88
2021/10/19 00:23:57;;;;;;;17.90;12.70;;;12.70;94.90;;;;;;4790419;29;20103;-88
2021/10/19 00:26:23;;;;;;;21.05;14.27;;;12.70;94.80;;;;;;4790175;29;20042;-87
2021/10/19 00:28:49;;;;;;;18.23;13.15;;;12.70;94.90;;;;;;4789581;29;20058;-88
2021/10/19 00:31:14;;;;;;;19.83;13.90;;;12.70;94.90;;;;;;4790321;29;20135;-88
2021/10/19 00:33:40;;;;;;;18.38;13.60;;;12.70;94.90;;;;;;4789560;29;20043;-88
2021/10/19 00:36:05;;;;;;;20.25;13.60;;;12.70;94.70;;;;;;4790210;29;20103;-88
2021/10/19 00:38:31;;;;;;;22.85;14.05;;;12.70;94.80;;;;;;4789119;29;20073;-87
2021/10/19 00:40:57;;;;;;;18.63;13.63;;;12.70;94.90;;;;;;4789758;29;20057;-87
2021/10/19 00:43:26;;;;;;;18.75;12.95;;;12.70;94.90;;;;;;4790233;29;20055;-87
2021/10/19 00:45:52;;;;;;;19.88;13.80;;;12.70;94.90;;;;;;4790558;29;20176;-88
2021/10/19 00:48:20;;;;;;;19.52;14.30;;;12.70;95.00;;;;;;4789455;29;20133;-88
2021/10/19 00:50:46;;;;;;;18.20;13.32;;;12.70;95.10;;;;;;4789301;29;20496;-88
2021/10/19 00:53:14;;;;;;;16.67;12.98;;;12.70;95.10;;;;;;4789793;29;20051;-87
2021/10/19 00:55:40;;;;;;;17.95;12.95;;;12.70;95.20;;;;;;4789134;29;20420;-87
2021/10/19 00:58:06;;;;;;;19.35;13.98;;;12.70;95.00;;;;;;4789923;29;20042;-87
2021/10/19 01:00:32;;;;;;;16.73;12.38;;;12.70;95.20;;;;;;4791503;29;20462;-88
2021/10/19 01:02:58;;;;;;;18.20;14.20;;;12.70;95.10;;;;;;4790098;29;20115;-88
2021/10/19 01:05:24;;;;;;;18.80;13.43;;;12.70;95.20;;;;;;4790247;29;20054;-88
2021/10/19 01:07:50;;;;;;;19.50;13.77;;;12.70;95.10;;;;;;4789387;29;20108;-87
2021/10/19 01:10:15;;;;;;;19.17;13.95;;;12.70;95.20;;;;;;4788943;29;20043;-88
2021/10/19 01:12:42;;;;;;;18.58;14.32;;;12.70;95.20;;;;;;4789201;29;20062;-87
2021/10/19 01:15:12;;;;;;;22.20;14.27;;;12.70;95.30;;;;;;4789641;29;20051;-88
2021/10/19 01:17:44;;;;;;;21.73;14.25;;;12.80;95.40;;;;;;4789151;29;20058;-88
2021/10/19 01:20:25;;;;;;;20.38;14.30;;;12.80;95.60;;;;;;4788538;29;20047;-87
2021/10/19 01:22:55;;;;;;;19.92;13.32;;;12.80;95.50;;;;;;4788707;29;20480;-88
2021/10/19 01:25:23;;;;;;;18.63;13.98;;;12.80;95.50;;;;;;4789938;29;20053;-89
2021/10/19 01:27:52;;;;;;;21.17;14.10;;;12.80;95.50;;;;;;4790109;29;20080;-88
2021/10/19 01:30:18;;;;;;;19.13;13.40;;;12.90;95.70;;;;;;4788901;29;20046;-88
2021/10/19 01:32:44;;;;;;;18.33;13.50;;;12.80;95.60;;;;;;4790149;29;20047;-87
2021/10/19 01:35:11;;;;;;;23.90;14.38;;;12.90;95.50;;;;;;4792489;29;20202;-88
2021/10/19 01:37:37;;;;;;;18.60;13.50;;;12.90;95.60;;;;;;4792805;29;20047;-88
2021/10/19 01:40:11;;;;;;;17.63;12.75;;;12.90;95.50;;;;;;4793438;29;20047;-88
2021/10/19 01:42:37;;;;;;;;;;;12.90;95.50;;;;;;4793952;29;20058;-87
2021/10/19 01:45:03;;;;;;;16.55;12.82;;;12.80;95.50;;;;;;4792219;29;19925;-88
2021/10/19 01:47:29;;;;;;;17.48;12.40;;;12.80;95.40;;;;;;4792428;29;20214;-88
2021/10/19 01:49:55;;;;;;;18.77;14.18;;;12.90;95.40;;;;;;4792684;29;20088;-88
2021/10/19 01:52:21;;;;;;;19.13;13.80;;;12.90;95.50;;;;;;4792858;29;20492;-87
2021/10/19 01:54:46;;;;;;;16.20;12.77;;;12.90;95.50;;;;;;4792262;29;20050;-88
2021/10/19 01:57:12;;;;;;;21.52;14.10;;;12.90;95.50;;;;;;4792833;29;20050;-88
2021/10/19 01:59:37;;;;;;;19.45;13.60;;;12.90;95.60;;;;;;4791741;29;20500;-88
2021/10/19 02:02:03;;;;;;;21.65;13.90;;;12.90;95.60;;;;;;4792852;29;20467;-88
2021/10/19 02:04:28;;;;;;;18.83;13.85;;;12.90;95.70;;;;;;4792447;29;20561;-88
2021/10/19 02:06:54;;;;;;;19.35;13.32;;;13.00;95.80;;;;;;4792322;29;20051;-87
2021/10/19 02:09:19;;;;;;;19.30;13.50;;;12.90;95.80;;;;;;4808789;29;20055;-88
2021/10/19 02:11:48;;;;;;;17.63;13.25;;;12.90;95.70;;;;;;4792974;29;20137;-88
2021/10/19 02:14:13;;;;;;;20.52;14.23;;;12.90;95.70;;;;;;4808001;29;20065;-88
2021/10/19 02:16:41;;;;;;;20.23;14.57;;;12.90;95.70;;;;;;4792866;29;20054;-88
2021/10/19 02:19:07;;;;;;;18.73;14.02;;;12.90;95.70;;;;;;4792557;29;20100;-88
2021/10/19 02:21:35;;;;;;;18.55;12.85;;;13.00;95.80;;;;;;4793352;29;20055;-87
2021/10/19 02:24:01;;;;;;;19.02;13.75;;;13.00;95.80;;;;;;4792966;29;20107;-87
2021/10/19 02:26:26;;;;;;;19.70;14.15;;;12.90;95.80;;;;;;4792387;29;20055;-87
2021/10/19 02:28:52;;;;;;;19.25;12.98;;;13.00;95.80;;;;;;4792877;29;20565;-88
2021/10/19 02:31:17;;;;;;;19.92;13.23;;;13.00;95.70;;;;;;4792691;29;20050;-88
2021/10/19 02:33:43;;;;;;;20.35;13.15;;;12.90;95.60;;;;;;4792024;29;20057;-88
2021/10/19 02:36:08;;;;;;;20.75;13.85;;;13.00;95.60;;;;;;4793166;29;20381;-88
2021/10/19 02:38:34;;;;;;;18.15;12.85;;;12.90;95.60;;;;;;4792265;29;20476;-88
2021/10/19 02:40:59;;;;;;;18.60;14.40;;;12.90;95.60;;;;;;4792313;29;20047;-88
2021/10/19 02:43:25;;;;;;;22.08;14.00;;;12.90;95.60;;;;;;4792992;29;20038;-88
2021/10/19 02:45:50;;;;;;;19.38;13.70;;;13.00;95.70;;;;;;4791461;29;20472;-88
2021/10/19 02:48:16;;;;;;;20.55;14.55;;;13.00;95.70;;;;;;4791165;29;20043;-88
2021/10/19 02:50:42;;;;;;;23.60;13.95;;;12.90;95.80;;;;;;5116521;24;20424;-88
2021/10/19 02:53:07;;;;;;;20.33;14.00;;;13.00;95.90;;;;;;4771383;30;20101;-88
2021/10/19 02:55:33;;;;;;;17.95;13.13;;;13.00;95.90;;;;;;4755536;30;20044;-89
2021/10/19 02:57:58;;;;;;;19.00;14.90;;;13.00;95.80;;;;;;4757785;30;20109;-88
2021/10/19 03:00:24;;;;;;;20.75;14.90;;;12.90;95.80;;;;;;4760977;30;20117;-88
2021/10/19 03:02:49;;;;;;;19.25;14.82;;;12.90;95.90;;;;;;4756324;30;20083;-87
2021/10/19 03:05:15;;;;;;;19.60;14.60;;;13.00;96.00;;;;;;4757447;30;20047;-89
2021/10/19 03:07:41;;;;;;;22.27;14.90;;;13.00;96.00;;;;;;4756318;30;20047;-89
2021/10/19 03:10:07;;;;;;;21.17;14.27;;;13.00;96.10;;;;;;4762071;30;20048;-89
2021/10/19 03:12:33;;;;;;;19.17;14.70;;;13.00;96.10;;;;;;4774724;30;20039;-89
2021/10/19 03:14:59;;;;;;;19.50;14.32;;;13.00;96.00;;;;;;4763202;30;20398;-89
2021/10/19 03:17:25;;;;;;;21.20;14.48;;;13.00;96.00;;;;;;4764475;30;20048;-88
2021/10/19 03:19:50;;;;;;;18.60;14.93;;;13.00;96.00;;;;;;4763632;30;20039;-88
2021/10/19 03:22:16;;;;;;;19.40;14.60;;;13.00;96.00;;;;;;4773205;30;20055;-88
2021/10/19 03:24:41;;;;;;;20.48;14.50;;;13.00;96.10;;;;;;4762819;30;20044;-87
2021/10/19 05:07:17;;;;;;;;;;;13.20;96.40;;;;;;4627603;30;20067;-88
2021/10/19 06:18:24;;;;;;;23.17;15.77;;;13.40;97.70;;;;;;4736357;30;20043;-88
2021/10/19 06:22:02;;;;;;;22.88;16.60;;;13.40;97.70;;;;;;4674792;30;20136;-88
2021/10/19 07:06:35;;;;;;;26.42;17.50;;;13.60;98.40;;;;;;4617553;30;20101;-88
2021/10/19 07:09:02;;;;;;;22.42;17.27;;;13.60;98.60;;;;;;4706755;30;20069;-87
2021/10/19 07:11:29;;;;;;;20.20;16.42;;;13.70;98.80;;;;;;4788791;29;20065;-87
2021/10/19 07:13:55;;;;;;;21.58;16.42;;;13.70;98.90;;;;;;4797495;29;20058;-87
2021/10/19 07:16:21;;;;;;;20.83;16.35;;;13.70;98.90;;;;;;4796867;29;20054;-87
2021/10/19 07:18:46;;;;;;;21.33;15.88;;;13.70;98.90;;;;;;4808613;29;20058;-87
2021/10/19 07:21:13;;;;;;;21.63;15.57;;;13.80;98.90;;;;;;4802863;29;20117;-89
2021/10/19 07:23:38;;;;;;;20.77;16.08;;;13.80;98.90;;;;;;4802514;29;20042;-87
2021/10/19 07:26:04;;;;;;;21.38;15.27;;;13.80;98.80;;;;;;4810615;29;20049;-87
2021/10/19 07:28:32;;;;;;;20.58;16.52;;;13.80;98.80;;;;;;4809077;29;20043;-87
2021/10/19 07:30:57;;;;;;;15.77;13.52;;;13.80;98.90;;;;;;4795571;29;20459;-87
2021/10/19 07:33:23;;;;;;;17.58;13.65;;;13.80;98.80;;;;;;4810737;29;20149;-88
2021/10/19 07:35:49;;;;;;;19.30;15.68;;;13.90;98.70;;;;;;4804114;29;20141;-87
2021/10/19 07:38:15;;;;;;;19.55;15.63;;;13.90;98.70;;;;;;4801100;29;20450;-87
2021/10/19 07:40:40;;;;;;;21.20;15.77;;;13.90;98.80;;;;;;4802971;29;20049;-86
2021/10/19 07:43:06;;;;;;;19.55;15.30;;;13.90;98.90;;;;;;4808007;29;20422;-85
2021/10/19 07:45:34;;;;;;;18.95;15.80;;;13.90;98.90;;;;;;4803123;29;20409;-87
2021/10/19 07:48:01;;;;;;;21.52;15.90;;;13.90;99.00;;;;;;4805898;29;20057;-87
2021/10/19 07:50:29;;;;;;;19.95;16.88;;;13.90;99.10;;;;;;4796957;29;20047;-85
2021/10/19 07:52:56;;;;;;;19.05;15.88;;;14.00;99.20;;;;;;4823191;29;20523;-86
2021/10/19 07:55:24;;;;;;;18.17;14.32;;;14.00;99.20;;;;;;4807005;29;20067;-86
2021/10/19 07:57:50;;;;;;;17.05;14.32;;;14.00;99.10;;;;;;4806602;29;20055;-85
2021/10/19 08:00:20;;;;;;;23.33;15.73;;;14.00;99.00;;;;;;4792241;29;20095;-86
2021/10/19 08:02:46;;;;;;;20.05;15.48;;;14.00;99.10;;;;;;4810816;29;20097;-86
2021/10/19 08:05:14;;;;;;;21.38;15.80;;;14.00;99.20;;;;;;4826592;29;20050;-86
2021/10/19 08:07:50;;;;;;;24.52;16.58;;;14.10;99.20;;;;;;4803566;29;20047;-86
2021/10/19 08:10:20;;;;;;;19.83;14.98;;;14.00;99.30;;;;;;4807787;29;20047;-86
2021/10/19 08:12:46;;;;;;;19.20;14.88;;;14.10;99.30;;;;;;4808949;29;20046;-86
2021/10/19 08:15:12;;;;;;;17.70;14.75;;;14.10;99.30;;;;;;4805270;29;20047;-86
2021/10/19 08:17:39;;;;;;;20.13;15.68;;;14.10;99.30;;;;;;4798806;29;20047;-87
2021/10/19 08:20:06;;;;;;;17.88;13.98;;;14.20;99.40;;;;;;4795889;29;20059;-88
2021/10/19 08:22:34;;;;;;;18.67;14.50;;;14.20;99.30;;;;;;4803095;29;20049;-87
2021/10/19 08:25:05;;;;;;;19.45;16.40;;;14.20;99.20;;;;;;4796390;29;20059;-87
2021/10/19 08:27:32;;;;;;;22.95;16.00;;;14.20;99.30;;;;;;4813441;29;20038;-87
2021/10/19 08:29:57;;;;;;;18.98;16.23;;;14.20;99.50;;;;;;4805567;29;20082;-87
2021/10/19 08:32:23;;;;;;;14.10;12.57;;;14.20;99.60;;;;;;4799310;29;20076;-87
2021/10/19 08:34:48;;;;;;;15.90;12.70;;;14.20;99.40;;;;;;4802993;29;20105;-87
2021/10/19 08:37:14;;;;;;;18.23;14.50;;;14.30;99.40;;;;;;4801355;29;20470;-88
2021/10/19 08:39:41;;;;;;;16.75;13.73;;;14.30;99.40;;;;;;4797887;29;20392;-87
2021/10/19 08:42:06;;;;;;;17.27;13.85;;;14.30;99.50;;;;;;4799203;29;20086;-87
2021/10/19 08:44:32;;;;;;;17.52;13.68;;;14.30;99.50;;;;;;4795859;29;20077;-85
2021/10/19 08:46:58;;;;;;;16.63;13.30;;;14.40;99.60;;;;;;4801432;29;20089;-86
2021/10/19 08:49:23;;;;;;;14.13;12.27;;;14.40;99.50;;;;;;4793977;29;20055;-84
2021/10/19 08:51:49;;;;;;;22.25;15.10;;;14.40;99.40;;;;;;4791691;29;20038;-87
2021/10/19 08:54:14;;;;;;;13.85;11.55;;;14.40;99.50;;;;;;4790106;29;20100;-86
2021/10/19 08:56:40;;;;;;;16.52;12.32;;;14.40;99.50;;;;;;4797460;29;20137;-85
2021/10/19 08:59:06;;;;;;;18.08;13.07;;;14.40;99.50;;;;;;4795694;29;20070;-86
2021/10/19 09:01:37;;;;;;;16.80;12.63;;;14.50;99.60;;;;;;4798729;29;20058;-87
2021/10/19 09:04:11;;;;;;;15.95;13.30;;;14.50;99.60;;;;;;4800187;29;20137;-87
2021/10/19 09:06:41;;;;;;;16.33;13.15;;;14.50;99.70;;;;;;4802120;29;20046;-87
2021/10/19 09:09:56;;;;;;;18.80;13.95;;;14.60;99.70;;;;;;4800069;29;20396;-86
2021/10/19 09:24:48;;;;;;;16.65;12.70;;;14.70;99.80;;;;;;4700898;30;20053;-87
2021/10/19 09:35:30;;;;;;;;;;;;;;;;;;;;;
2021/10/19 09:38:15;;;;;;;12.98;10.15;;;14.80;99.90;;;;;;4715145;30;20053;-88
2021/10/19 09:45:06;;;;;;;11.80;10.25;;;14.80;99.90;;;;;;4715041;30;20094;-88
2021/10/19 10:18:44;;;;;;;11.32;10.10;;;15.20;99.90;;;;;;4797314;29;20065;-84
2021/10/19 10:39:48;;;;;;;10.73;9.07;;;15.40;99.90;;;;;;4702442;30;20580;-87
2021/10/19 10:42:33;;;;;;;10.50;8.07;;;15.50;99.90;;;;;;4705982;30;20041;-88
2021/10/19 10:44:58;;;;;;;10.82;9.02;;;15.50;99.90;;;;;;4741541;30;20924;-88
2021/10/19 10:47:26;;;;;;;8.82;7.68;;;15.50;99.90;;;;;;4750619;30;20136;-89
2021/10/19 10:49:58;;;;;;;9.90;8.45;;;15.50;99.90;;;;;;4755246;30;20062;-87
2021/10/19 10:52:24;;;;;;;10.75;9.07;;;15.60;99.90;;;;;;4752934;30;20463;-88
2021/10/19 10:54:51;;;;;;;11.68;9.32;;;15.60;99.90;;;;;;4755546;30;20044;-88
2021/10/19 10:57:41;;;;;;;10.55;9.45;;;15.60;99.90;;;;;;4754443;30;20088;-90
2021/10/19 11:00:21;;;;;;;10.75;9.65;;;15.60;99.90;;;;;;4780225;29;20055;-93
2021/10/19 11:02:53;;;;;;;11.75;8.85;;;15.60;99.90;;;;;;4798028;29;20061;-90
2021/10/19 11:05:36;;;;;;;9.77;8.65;;;15.70;99.90;;;;;;4794293;29;20047;-89
2021/10/19 11:08:02;;;;;;;10.18;9.07;;;15.70;99.90;;;;;;4800047;29;20050;-89
2021/10/19 11:10:46;;;;;;;10.02;8.38;;;15.70;99.90;;;;;;4799560;29;20073;-87
2021/10/19 11:13:21;;;;;;;10.18;8.82;;;15.70;99.90;;;;;;4808219;29;20058;-87
2021/10/19 11:20:10;;;;;;;11.93;9.27;;;15.80;99.90;;;;;;4777594;29;20058;-89
2021/10/19 11:22:40;;;;;;;9.95;8.30;;;15.80;99.90;;;;;;4791241;29;20119;-87
2021/10/19 11:25:09;;;;;;;9.85;8.82;;;15.80;99.90;;;;;;4792229;29;20047;-88
2021/10/19 11:27:51;;;;;;;11.73;9.50;;;15.80;99.90;;;;;;4801243;29;20057;-90
2021/10/19 11:30:37;;;;;;;12.00;9.77;;;15.80;99.90;;;;;;4792443;29;20059;-89
2021/10/19 11:33:06;;;;;;;12.30;10.30;;;15.80;99.90;;;;;;4803957;29;20054;-90
2021/10/19 11:38:07;;;;;;;14.07;11.50;;;15.90;99.90;;;;;;4920839;24;20058;-86
2021/10/19 11:40:34;;;;;;;14.65;11.38;;;15.90;99.90;;;;;;4792880;29;20053;-86
2021/10/19 11:43:01;;;;;;;10.43;9.32;;;16.00;99.90;;;;;;4790030;29;20112;-86
2021/10/19 11:45:27;;;;;;;12.30;10.70;;;16.00;99.90;;;;;;4791345;29;20078;-85
2021/10/19 12:05:30;;;;;;;10.88;9.15;;;16.20;99.90;;;;;;4792782;29;20047;-87
2021/10/19 12:54:35;;;;;;;9.90;7.93;;;16.90;99.90;;;;;;5120377;24;20571;-86
2021/10/19 12:57:06;;;;;;;9.70;7.50;;;16.90;99.90;;;;;;4787390;29;20055;-86
2021/10/19 12:59:38;;;;;;;7.47;6.55;;;16.90;99.90;;;;;;4796224;29;20094;-87
2021/10/19 13:02:10;;;;;;;10.07;7.15;;;16.90;99.90;;;;;;4792380;29;20049;-87
2021/10/19 13:04:38;;;;;;;8.10;6.10;;;17.00;99.90;;;;;;4772042;30;20062;-86
2021/10/19 13:07:10;;;;;;;7.68;6.03;;;17.00;99.90;;;;;;4771175;29;20051;-86
2021/10/19 13:09:36;;;;;;;7.88;6.40;;;17.00;99.90;;;;;;4786538;29;20046;-87
2021/10/19 13:12:01;;;;;;;7.57;6.07;;;17.10;99.90;;;;;;4788280;29;20400;-85
2021/10/19 13:14:33;;;;;;;9.50;7.43;;;17.00;99.90;;;;;;4772664;30;20055;-86
2021/10/19 13:17:02;;;;;;;7.88;6.47;;;17.10;99.90;;;;;;4773022;30;20078;-87
2021/10/19 13:19:27;;;;;;;9.07;6.57;;;17.10;99.90;;;;;;4773082;29;20047;-86
2021/10/19 13:21:55;;;;;;;9.88;6.20;;;17.10;99.90;;;;;;4773388;29;20142;-86
2021/10/19 13:24:21;;;;;;;7.93;5.93;;;17.10;99.90;;;;;;4788858;29;20112;-86
2021/10/19 13:26:47;;;;;;;8.75;6.40;;;17.10;99.90;;;;;;4789823;29;20439;-86
2021/10/19 13:29:12;;;;;;;8.60;6.63;;;17.20;99.90;;;;;;4789881;29;20538;-87
2021/10/19 13:31:39;;;;;;;7.65;5.68;;;17.20;99.90;;;;;;4797268;29;20050;-87
2021/10/19 13:34:15;;;;;;;7.68;6.05;;;17.20;99.90;;;;;;4789082;29;20408;-87
2021/10/19 13:36:48;;;;;;;7.93;6.28;;;17.20;99.90;;;;;;4792468;29;20043;-84
2021/10/19 13:39:13;;;;;;;8.27;6.60;;;17.20;99.90;;;;;;4779524;30;20043;-86
2021/10/19 13:41:40;;;;;;;7.22;6.00;;;17.20;99.90;;;;;;4778967;30;20077;-86
2021/10/19 13:44:07;;;;;;;9.57;6.78;;;17.20;99.90;;;;;;4788607;29;20408;-86
2021/10/19 13:46:33;;;;;;;7.95;6.10;;;17.30;99.90;;;;;;4793176;29;20065;-88
2021/10/19 13:48:59;;;;;;;8.85;6.68;;;17.30;99.90;;;;;;4784879;29;20560;-86
2021/10/19 13:51:24;;;;;;;8.15;5.72;;;17.30;99.90;;;;;;4791836;29;20149;-86
2021/10/19 13:53:53;;;;;;;7.68;5.75;;;17.30;99.90;;;;;;4790669;29;20067;-83
2021/10/19 13:56:21;;;;;;;7.60;6.03;;;17.30;99.90;;;;;;4774521;29;20493;-83
2021/10/19 13:58:47;;;;;;;7.75;6.00;;;17.30;99.90;;;;;;4775914;30;20051;-86
2021/10/19 14:01:14;;;;;;;7.85;5.90;;;17.30;99.90;;;;;;4797099;29;20055;-84
2021/10/19 14:03:40;;;;;;;7.65;5.75;;;17.30;99.90;;;;;;4789207;29;20050;-86
2021/10/19 14:06:09;;;;;;;8.90;6.60;;;17.40;99.90;;;;;;4776036;29;20051;-87
2021/10/19 14:08:35;;;;;;;10.85;7.90;;;17.40;99.90;;;;;;4780590;30;20488;-88
2021/10/19 14:11:04;;;;;;;10.27;8.02;;;17.40;99.90;;;;;;4776879;29;20146;-90
2021/10/19 14:13:30;;;;;;;13.82;10.05;;;17.40;99.90;;;;;;4784244;29;20043;-88
2021/10/19 14:15:56;;;;;;;14.85;10.88;;;17.40;99.90;;;;;;4806495;29;20059;-89
2021/10/19 14:18:24;;;;;;;17.35;12.00;;;17.40;99.90;;;;;;4775701;29;20043;-88
2021/10/19 14:20:49;;;;;;;19.35;13.30;;;17.40;99.90;;;;;;4776163;29;20116;-88
2021/10/19 14:23:15;;;;;;;21.92;12.93;;;17.50;99.90;;;;;;4806488;29;20442;-88
2021/10/19 14:25:43;;;;;;;22.85;15.35;;;17.50;99.90;;;;;;4784216;29;20051;-87
2021/10/19 14:28:12;;;;;;;20.83;15.50;;;17.50;99.90;;;;;;4785259;29;20460;-88
2021/10/19 14:30:57;;;;;;;20.45;13.63;;;17.50;99.90;;;;;;4793658;29;20149;-88
2021/10/19 14:34:09;;;;;;;24.08;14.73;;;17.50;99.90;;;;;;4775356;30;20062;-89
2021/10/19 14:36:53;;;;;;;25.02;13.98;;;17.50;99.90;;;;;;4782936;29;20049;-87
2021/10/19 14:39:22;;;;;;;20.95;14.43;;;17.60;99.90;;;;;;4792132;29;20047;-87
2021/10/19 14:41:52;;;;;;;25.27;17.38;;;17.60;99.90;;;;;;4789881;29;20050;-85
2021/10/19 14:44:23;;;;;;;23.38;15.07;;;17.60;99.90;;;;;;4784690;29;20478;-86
2021/10/19 14:46:49;;;;;;;28.70;17.67;;;17.60;99.90;;;;;;4804548;29;20077;-86
2021/10/19 14:49:16;;;;;;;21.90;14.95;;;17.60;99.90;;;;;;4808688;29;20488;-86
2021/10/19 14:51:46;;;;;;;23.63;16.83;;;17.60;99.90;;;;;;4801475;29;20477;-88
2021/10/19 14:54:13;;;;;;;23.15;16.00;;;17.60;99.90;;;;;;4790188;29;20092;-85
2021/10/19 14:56:39;;;;;;;30.15;16.25;;;17.60;99.90;;;;;;4791592;29;20051;-85
2021/10/19 14:59:06;;;;;;;22.48;16.60;;;17.60;99.90;;;;;;4788131;29;20553;-85
2021/10/19 15:01:32;;;;;;;28.08;17.15;;;17.70;99.90;;;;;;4804428;29;20090;-85
2021/10/19 15:03:58;;;;;;;25.77;17.08;;;17.70;99.90;;;;;;4789868;29;20095;-86
2021/10/19 15:06:23;;;;;;;27.60;17.55;;;17.70;99.90;;;;;;4788181;29;20141;-89
2021/10/19 15:08:52;;;;;;;24.60;17.38;;;17.70;99.90;;;;;;4790666;29;20184;-90
2021/10/19 15:11:17;;;;;;;25.98;16.63;;;17.70;99.90;;;;;;4786772;29;20571;-89
2021/10/19 15:13:47;;;;;;;24.85;18.00;;;17.70;99.90;;;;;;4794158;29;20129;-91
2021/10/19 15:16:17;;;;;;;24.63;16.58;;;17.70;99.90;;;;;;4791225;29;20484;-91
2021/10/19 15:19:58;;;;;;;28.50;17.70;;;17.70;99.90;;;;;;4846904;24;20066;-89
2021/10/19 15:22:33;;;;;;;25.67;16.77;;;17.70;99.70;;;;;;4825365;29;20062;-90
2021/10/19 15:25:04;;;;;;;28.30;17.42;;;17.60;99.80;;;;;;4813705;29;20046;-90
2021/10/19 15:27:31;;;;;;;25.42;17.88;;;17.60;99.70;;;;;;4818678;29;20510;-90
2021/10/19 15:30:04;;;;;;;26.35;17.60;;;17.70;99.60;;;;;;4809112;29;20506;-89
2021/10/19 15:32:32;;;;;;;28.80;18.63;;;17.60;99.40;;;;;;4810484;29;20077;-90
2021/10/19 15:34:58;;;;;;;25.15;18.13;;;17.60;99.40;;;;;;4822326;29;20085;-89
2021/10/19 15:37:27;;;;;;;31.05;18.30;;;17.60;99.30;;;;;;4820301;29;20077;-89
2021/10/19 15:40:02;;;;;;;29.33;19.38;;;17.60;99.20;;;;;;4813694;29;20081;-90
2021/10/19 15:42:32;;;;;;;24.90;17.58;;;17.60;99.10;;;;;;4821455;29;20452;-91
2021/10/19 15:45:01;;;;;;;29.15;19.98;;;17.60;99.10;;;;;;4815006;29;20058;-90
2021/10/19 15:47:29;;;;;;;33.10;20.10;;;17.60;99.00;;;;;;4823230;29;20042;-90
2021/10/19 15:49:58;;;;;;;30.42;19.52;;;17.60;98.90;;;;;;4826160;29;20053;-89
2021/10/19 15:52:27;;;;;;;28.77;19.70;;;17.50;98.80;;;;;;4814615;29;20046;-88
2021/10/19 15:54:59;;;;;;;27.20;20.45;;;17.60;98.80;;;;;;4816162;29;20062;-90
2021/10/19 15:57:30;;;;;;;32.83;20.70;;;17.50;98.70;;;;;;4809251;29;20106;-89
2021/10/19 15:59:58;;;;;;;32.08;21.27;;;17.40;98.70;;;;;;4809380;29;20051;-89
2021/10/19 16:02:30;;;;;;;31.38;21.42;;;17.50;98.70;;;;;;4820637;29;20050;-90
2021/10/19 16:05:02;;;;;;;32.72;20.92;;;17.40;98.50;;;;;;4813973;29;20405;-90
2021/10/19 16:07:36;;;;;;;31.85;21.63;;;17.40;98.50;;;;;;4823194;29;20079;-89
2021/10/19 16:10:06;;;;;;;29.73;21.15;;;17.40;98.40;;;;;;4819716;29;20043;-91
2021/10/19 16:12:34;;;;;;;29.38;21.33;;;17.30;98.40;;;;;;4809488;29;20042;-89
2021/10/19 16:15:06;;;;;;;30.55;21.80;;;17.30;98.40;;;;;;4813606;29;20050;-89
2021/10/19 16:17:44;;;;;;;32.92;23.02;;;17.30;98.30;;;;;;4812075;29;20057;-89
2021/10/19 16:20:17;;;;;;;30.00;22.42;;;17.30;98.10;;;;;;4802364;29;20062;-89
2021/10/19 16:23:16;;;;;;;32.33;22.27;;;17.20;98.50;;;;;;4807723;29;20058;-89
2021/10/19 16:26:19;;;;;;;32.45;23.23;;;17.20;98.10;;;;;;4791946;29;20461;-90
2021/10/19 16:29:11;;;;;;;30.63;22.38;;;17.20;98.00;;;;;;4795111;29;20050;-89
2021/10/19 16:31:59;;;;;;;32.85;25.33;;;17.20;98.00;;;;;;4791736;29;20054;-90
2021/10/19 16:34:46;;;;;;;36.45;27.92;;;17.10;98.10;;;;;;4790904;29;20039;-89
2021/10/19 16:50:44;;;;;;;28.85;22.83;;;17.00;97.80;;;;;;5073452;24;20496;-88
2021/10/19 17:04:32;;;;;;;32.58;24.00;;;16.90;97.80;;;;;;4786280;29;20117;-86
2021/10/19 17:06:58;;;;;;;31.40;24.38;;;16.80;98.00;;;;;;4770043;29;20497;-87
2021/10/19 17:09:24;;;;;;;30.30;24.23;;;16.80;97.90;;;;;;4770585;29;20130;-86
2021/10/19 17:11:50;;;;;;;30.92;23.25;;;16.80;97.90;;;;;;4767615;29;20514;-85
2021/10/19 17:14:16;;;;;;;28.70;23.83;;;16.80;97.90;;;;;;4770000;29;20225;-86
2021/10/19 17:16:41;;;;;;;32.10;23.45;;;16.80;97.80;;;;;;4785384;29;20450;-86
2021/10/19 17:19:07;;;;;;;28.95;23.75;;;16.70;97.90;;;;;;4779971;30;20066;-85
2021/10/19 17:21:33;;;;;;;28.95;23.15;;;16.70;97.90;;;;;;4775476;29;20130;-86
2021/10/19 17:23:58;;;;;;;31.80;24.55;;;16.70;97.90;;;;;;4787602;29;20108;-86
2021/10/19 17:26:24;;;;;;;27.52;22.52;;;16.70;97.90;;;;;;4786855;29;20047;-86
2021/10/19 17:28:50;;;;;;;29.30;23.67;;;16.70;98.00;;;;;;4817399;29;20065;-86
2021/10/19 17:31:15;;;;;;;32.78;23.55;;;16.60;98.00;;;;;;4798666;29;20042;-86
2021/10/19 17:33:41;;;;;;;29.50;23.27;;;16.70;98.00;;;;;;4790402;29;20053;-86
2021/10/19 17:36:07;;;;;;;32.28;23.85;;;16.70;98.20;;;;;;4791055;29;20097;-84
2021/10/19 17:38:33;;;;;;;33.28;24.25;;;16.60;98.20;;;;;;4794881;29;20046;-87
2021/10/19 17:41:01;;;;;;;31.45;23.83;;;16.60;98.20;;;;;;4790549;29;20051;-87
2021/10/19 17:43:27;;;;;;;30.45;24.52;;;16.60;98.20;;;;;;4802872;29;20507;-87
2021/10/19 17:45:53;;;;;;;31.80;24.08;;;16.70;98.30;;;;;;4808711;29;20057;-88
2021/10/19 17:48:24;;;;;;;31.73;24.88;;;16.70;98.30;;;;;;4804601;29;20035;-87
2021/10/19 17:50:51;;;;;;;31.20;23.98;;;16.70;98.30;;;;;;4790770;29;20086;-89
2021/10/19 17:53:24;;;;;;;29.52;23.48;;;16.70;98.30;;;;;;4806390;29;20176;-89
2021/10/19 18:00:12;;;;;;;31.20;23.63;;;16.80;98.30;;;;;;4791372;29;20055;-86
2021/10/19 18:14:47;;;;;;;34.50;24.58;;;16.80;98.20;;;;;;4812769;29;20045;-88
2021/10/19 18:22:50;;;;;;;32.38;23.63;;;16.80;98.30;;;;;;4814120;29;20560;-89
2021/10/19 18:26:51;;;;;;;28.02;23.05;;;16.80;98.30;;;;;;4794565;29;20086;-88
2021/10/19 18:33:12;;;;;;;32.10;23.98;;;16.80;98.30;;;;;;5669500;24;20051;-88
2021/10/19 18:35:38;;;;;;;31.08;23.10;;;16.80;98.40;;;;;;4805028;29;20051;-88
2021/10/19 18:38:18;;;;;;;30.58;22.27;;;16.80;98.40;;;;;;4805667;29;20061;-88
2021/10/19 18:40:44;;;;;;;32.58;23.25;;;16.90;98.40;;;;;;4811760;29;20059;-89
2021/10/19 18:43:10;;;;;;;26.50;21.20;;;16.90;98.50;;;;;;4811596;29;20046;-89
2021/10/19 18:45:38;;;;;;;28.80;23.17;;;16.90;98.70;;;;;;4810789;29;20090;-88
2021/10/19 18:48:45;;;;;;;31.02;22.40;;;16.90;98.40;;;;;;4811477;29;20062;-90
2021/10/19 18:51:13;;;;;;;27.30;21.65;;;16.80;98.40;;;;;;4810589;29;20415;-90
2021/10/19 18:58:13;;;;;;;26.67;20.83;;;16.90;98.60;;;;;;4809758;29;20114;-88
2021/10/19 19:01:00;;;;;;;29.05;21.50;;;16.80;98.50;;;;;;4793332;29;20051;-90
2021/10/19 19:03:41;;;;;;;26.42;19.70;;;16.80;98.60;;;;;;4793554;29;20058;-88
2021/10/19 19:09:56;;;;;;;31.90;21.98;;;16.80;98.70;;;;;;4807548;29;20054;-88
2021/10/19 19:17:06;;;;;;;28.15;20.67;;;16.90;98.80;;;;;;4788035;29;20062;-88
2021/10/19 19:20:35;;;;;;;29.40;20.00;;;16.80;98.80;;;;;;4782145;29;20070;-88
2021/10/19 19:32:03;;;;;;;27.77;20.58;;;16.90;99.00;;;;;;4806402;29;20066;-85
2021/10/19 19:49:28;;;;;;;25.20;20.17;;;16.90;99.00;;;;;;4804729;29;20498;-85
2021/10/19 19:55:16;;;;;;;24.23;17.40;;;16.90;99.40;;;;;;4806408;29;20049;-85
2021/10/19 19:57:43;;;;;;;24.75;19.27;;;16.90;99.00;;;;;;4791055;29;20050;-85
2021/10/19 20:03:52;;;;;;;22.02;17.50;;;16.90;99.00;;;;;;4729719;29;20047;-86
2021/10/19 20:06:23;;;;;;;24.33;18.42;;;16.90;99.30;;;;;;4791578;29;20496;-86
2021/10/19 20:08:49;;;;;;;23.25;17.60;;;16.90;99.00;;;;;;4791005;29;20431;-86
2021/10/19 20:11:24;;;;;;;24.83;18.77;;;17.00;99.00;;;;;;4823563;24;20071;-92
2021/10/19 20:18:22;;;;;;;23.60;16.73;;;16.90;98.90;;;;;;4889878;24;20066;-89
2021/10/19 20:21:08;;;;;;;24.05;16.95;;;17.00;98.90;;;;;;4798508;29;20054;-91
2021/10/19 20:23:39;;;;;;;23.50;15.95;;;17.00;99.00;;;;;;4801953;29;20050;-90
2021/10/19 20:26:16;;;;;;;21.42;16.40;;;17.00;98.90;;;;;;4793016;29;20051;-91
2021/10/19 20:28:45;;;;;;;21.40;16.13;;;17.00;98.80;;;;;;4801913;29;20042;-90
2021/10/19 20:31:11;;;;;;;21.30;16.27;;;17.00;98.80;;;;;;4804116;29;20054;-90